x

Port Stanley (45132) Wave Buoy

1:00am - Thu 21st Aug 2014 All times are CDT. -5 hours from GMT.

  • Sig Wave height 0.7ft
  • Peak Period 3s
  • Wind
    4mph, 7mph gusts
  • Sea Temp 70°f
  • Air Temp 70°f
  • Sea Pressure 1013.4mb
  • Port Stanley
  • Port Stanley

More Historic Weather Station data

Upgrade to MSW Pro to gain access to the past 30 days of data for over 8000 Wavebouys and Weather Stations around the globe.

Join Pro

Comparision Forecast

View Surf forecast
   
Thu 08/21 1:00am 0.7ft 3s 4 7 mph 1013.4mb 70f 70f
12:00am 0.7ft 4s 7
mph
1013.5mb 70f 70f
Wed 08/20 11:00pm 0.7ft 3s 4 7 mph 1013.6mb 70f 70f
10:00pm 0.7ft 4s 7
mph
1013.4mb 70f 70f
9:00pm 1ft 4s 7 13 mph 1012.7mb 70f 71f
8:00pm 1ft 4s 7 9 mph 1012mb 70f 71f
7:00pm 1ft 4s 4 9 mph 1011.5mb 70f 73f
6:00pm 1.3ft 4s 4 9 mph 1011.5mb 70f 73f
5:00pm 1.3ft 4s 9
mph
1011.6mb 70f 71f
4:00pm 1.6ft 4s 9
mph
1011.7mb 70f 71f
3:00pm 1.6ft 4s 13 16 mph 1011.1mb 70f 71f
2:00pm 1.6ft 4s 7 9 mph 1011.6mb 70f 71f
1:00pm 1.6ft 4s 9
mph
1011.6mb 70f 71f
12:00pm 2ft 4s 9 11 mph 1011.5mb 70f 71f
11:00am 2.5ft 4s 9 11 mph 1011.2mb 69f 70f
10:00am 2ft 4s 9 11 mph 1011.2mb 69f 70f
9:00am 2ft 4s 11 13 mph 1010.8mb 69f 70f
8:00am 2.5ft 4s 7 9 mph 1010.9mb 69f 69f
7:00am 2.5ft 4s 13 16 mph 1010.3mb 69f 70f
6:00am 2.5ft 4s 11 16 mph 1010.2mb 69f 69f
5:00am 2.5ft 5s 13 16 mph 1009.1mb 69f 69f
4:00am 2ft 3s 16 20 mph 1009mb 69f 69f
3:00am 1.6ft 4s 9 11 mph 1009.2mb 69f 69f
2:00am 1.6ft 3s 13 16 mph 1009.1mb 69f 69f
1:00am 1.6ft 3s 13 16 mph 1009.1mb 69f 69f
12:00am 1.6ft 3s 16 18 mph 1009.3mb 69f 69f
Tue 08/19 11:00pm 1.6ft 4s 18 20 mph 1009.4mb 69f 69f
10:00pm 1.3ft 3s 16 20 mph 1009.1mb 69f 68f
9:00pm 1.3ft 4s 16 20 mph 1008.7mb 69f 68f
8:00pm 1.6ft 4s 9 13 mph 1010.2mb 69f 67f
7:00pm 1.3ft 3s 16 20 mph 1008.4mb 69f 71f
6:00pm 1.6ft 3s 13 18 mph 1008.5mb 69f 70f
5:00pm 1.3ft 3s 16 18 mph 1008.7mb 69f 70f
4:00pm 1.3ft 3s 13 16 mph 1009.1mb 70f 69f
3:00pm 1.6ft 3s 13 18 mph 1009.3mb 70f 69f
2:00pm 1.3ft 3s 16 18 mph 1009.3mb 69f 68f
1:00pm 1ft 3s 16 18 mph 1009.5mb 70f 68f
12:00pm 0.7ft 3s 13
mph
1010.6mb 69f 67f
11:00am 0.7ft 3s 9 11 mph 1011.2mb 69f 67f
10:00am 0.7ft 3s 11 13 mph 1010.8mb 69f 67f
9:00am 0.7ft 3s 7
mph
1011.1mb 69f 67f
8:00am 1ft 4s 7 9 mph 1010.9mb 69f 66f
7:00am 1ft 4s 9
mph
1010.5mb 69f 66f
6:00am 1ft 4s 9 11 mph 1010.3mb 69f 65f
5:00am 1ft 4s 9 11 mph 1010.3mb 69f 66f
4:00am 1ft 4s 9 11 mph 1010.2mb 69f 66f
3:00am 1.3ft 4s 9 11 mph 1010.2mb 69f 67f
2:00am 1.3ft 4s 9 11 mph 1010.5mb 69f 67f
1:00am 1.3ft 3s 11 13 mph 1010.8mb 69f 68f
12:00am 1.3ft 3s 9 11 mph 1011.3mb 69f 68f
Mon 08/18 11:00pm 1ft 3s 11 13 mph 1011.2mb 69f 68f
10:00pm 1ft 4s 13
mph
1011.3mb 69f 69f
9:00pm 1ft 3s 11 13 mph 1011.3mb 69f 69f
8:00pm 1ft 4s 11
mph
1011.1mb 69f 68f
7:00pm 1ft 4s 9
mph
1011.3mb 69f 69f
6:00pm 1ft 4s 9
mph
1011.4mb 70f 69f
5:00pm 1ft 4s 9
mph
1011.8mb 70f 68f
4:00pm 1ft 4s 9
mph
1011.9mb 70f 68f
3:00pm 1.3ft 4s 9
mph
1012.1mb 70f 67f
2:00pm 1.3ft 4s 7 9 mph 1012.9mb 70f 67f
1:00pm 1.6ft 4s 11 13 mph 1013.2mb 69f 66f
12:00pm 1.6ft 4s 11 13 mph 1013.4mb 69f 66f
11:00am 1.6ft 4s 13 16 mph 1013.7mb 69f 65f
10:00am 1.3ft 4s 11 13 mph 1014.3mb 69f 65f
9:00am 1.3ft 3s 11 13 mph 1014.4mb 69f 64f
8:00am 1.3ft 4s 11 13 mph 1014.4mb 69f 64f
7:00am 1.3ft 3s 11 13 mph 1014.1mb 69f 65f
6:00am 1.3ft 3s 11 13 mph 1014mb 68f 65f
5:00am 1.3ft 3s 13 16 mph 1013.8mb 69f 65f
4:00am 1.3ft 3s 13 16 mph 1013.8mb 69f 66f
3:00am 1ft 3s 16 18 mph 1013.8mb 69f 66f
2:00am 0.3ft 2s 13 16 mph 1013.8mb 69f 66f
1:00am 0.3ft 2s 9 11 mph 1014.3mb 69f 67f
12:00am 0.3ft 2s 7
mph
1014.8mb 69f 67f
Sun 08/17 11:00pm 0.3ft 2s 4
mph
1015.3mb 69f 68f
10:00pm 0.3ft 4s 4
mph
1015.3mb 69f 68f
9:00pm 0.3ft 3s  -  2 mph 1015.3mb 69f 68f
8:00pm 0.3ft 3s  -  2 mph 1015.1mb 70f 68f
7:00pm 0.3ft 3s 2
mph
1014.7mb 70f 68f
6:00pm 0.3ft 4s 7 9 mph 1014.7mb 70f 68f
5:00pm 0.3ft 3s 7 9 mph 1014.9mb 71f 68f
4:00pm 0.3ft 4s 9
mph
1015.1mb 71f 67f
3:00pm 0.3ft 4s 9
mph
1015.3mb 71f 67f
2:00pm 0.3ft 4s 4 7 mph 1015.5mb 72f 66f
1:00pm 0.7ft 4s 4 7 mph 1015.7mb 72f 66f
12:00pm 0.7ft 4s 2 4 mph 1016.2mb 71f 66f
11:00am 0.7ft 4s 2 4 mph 1016.5mb 70f 65f
10:00am 1ft 4s 4 7 mph 1016.7mb 69f 65f
9:00am 1ft 4s 7 9 mph 1016.2mb 69f 64f
8:00am 1.3ft 5s 7 9 mph 1015.8mb 68f 64f